Time;durP1;ratioP1;P1;durP2;ratioP2;P2;SDS_P1;SDS_P2;PMS_P1;PMS_P2;Temp;Humidity;BMP_temperature;BMP_pressure;BME280_temperature;BME280_humidity;BME280_pressure;Samples;Min_cycle;Max_cycle;Signal;HPM_P1;HPM_P2
2021/12/09 00:01:20;;;;;;;12.07;9.00;;;3.20;96.30;;;;;;5022941;28;20190;-87
2021/12/09 00:03:48;;;;;;;11.13;8.73;;;3.10;95.90;;;;;;5054888;28;20251;-88
2021/12/09 00:06:20;;;;;;;13.00;9.77;;;3.10;95.80;;;;;;5054547;28;20190;-87
2021/12/09 00:08:48;;;;;;;10.13;8.80;;;3.10;96.10;;;;;;5045762;28;20201;-88
2021/12/09 00:11:16;;;;;;;10.47;8.37;;;3.10;95.90;;;;;;5045200;28;20873;-88
2021/12/09 00:13:43;;;;;;;12.10;8.77;;;2.90;96.40;;;;;;5034908;28;20214;-88
2021/12/09 00:16:10;;;;;;;9.67;8.40;;;3.00;96.40;;;;;;5045843;28;20208;-89
2021/12/09 00:18:37;;;;;;;9.77;7.90;;;2.90;96.50;;;;;;5039249;28;20199;-87
2021/12/09 00:21:04;;;;;;;8.50;7.13;;;2.90;96.70;;;;;;5042286;28;20668;-87
2021/12/09 00:23:31;;;;;;;8.70;7.17;;;2.90;96.40;;;;;;5034354;28;20658;-88
2021/12/09 00:26:00;;;;;;;8.37;7.17;;;2.80;96.70;;;;;;5035352;28;20195;-88
2021/12/09 00:28:27;;;;;;;7.70;6.80;;;2.70;96.90;;;;;;5049144;28;20226;-88
2021/12/09 00:30:54;;;;;;;7.47;6.67;;;2.70;96.80;;;;;;5038060;28;20205;-88
2021/12/09 00:33:22;;;;;;;7.47;6.47;;;2.80;96.50;;;;;;5042423;28;20585;-87
2021/12/09 00:35:55;;;;;;;8.30;7.00;;;2.70;96.80;;;;;;5035506;28;20209;-87
2021/12/09 00:38:33;;;;;;;7.50;6.50;;;2.60;96.80;;;;;;5053441;28;20249;-88
2021/12/09 00:41:04;;;;;;;10.07;7.60;;;2.70;97.20;;;;;;5014663;28;20187;-88
2021/12/09 00:43:31;;;;;;;7.37;6.37;;;2.80;97.20;;;;;;5005220;28;20218;-88
2021/12/09 00:45:58;;;;;;;8.33;6.70;;;2.80;97.00;;;;;;5038981;28;20689;-88
2021/12/09 00:48:25;;;;;;;8.80;7.20;;;2.70;97.10;;;;;;5019073;28;20697;-87
2021/12/09 00:50:53;;;;;;;8.00;6.80;;;2.60;97.20;;;;;;5051325;28;20197;-87
2021/12/09 00:53:20;;;;;;;8.13;6.63;;;2.60;97.50;;;;;;5035998;28;20672;-86
2021/12/09 00:55:48;;;;;;;7.93;6.80;;;2.60;97.50;;;;;;5042447;28;20752;-88
2021/12/09 00:58:16;;;;;;;8.93;6.97;;;2.50;97.50;;;;;;5044388;28;20233;-86
2021/12/09 01:00:44;;;;;;;8.77;6.93;;;2.50;97.60;;;;;;5038814;28;20222;-87
2021/12/09 01:03:11;;;;;;;8.10;7.00;;;2.60;97.80;;;;;;5036463;28;20228;-87
2021/12/09 01:05:38;;;;;;;8.40;7.13;;;2.50;97.50;;;;;;5018888;28;20651;-89
2021/12/09 01:08:07;;;;;;;7.37;6.40;;;2.60;97.90;;;;;;5035188;28;20227;-88
2021/12/09 01:10:37;;;;;;;8.40;7.10;;;2.60;97.80;;;;;;5049732;28;20194;-87
2021/12/09 01:13:05;;;;;;;7.13;6.43;;;2.60;97.80;;;;;;5045679;28;20234;-87
2021/12/09 01:15:34;;;;;;;7.50;6.53;;;2.60;97.90;;;;;;5035047;28;20574;-86
2021/12/09 01:18:01;;;;;;;7.10;6.17;;;2.60;97.90;;;;;;5043602;28;20699;-87
2021/12/09 01:20:28;;;;;;;6.70;6.00;;;2.70;97.90;;;;;;5048524;28;20195;-87
2021/12/09 01:22:57;;;;;;;7.33;6.20;;;2.80;97.60;;;;;;5015171;28;20233;-87
2021/12/09 01:25:27;;;;;;;6.50;5.77;;;2.70;97.40;;;;;;5038662;28;20229;-87
2021/12/09 01:27:56;;;;;;;7.23;5.77;;;2.60;97.60;;;;;;5052879;28;20240;-87
2021/12/09 01:30:27;;;;;;;6.90;5.80;;;2.60;97.40;;;;;;5038156;28;20198;-87
2021/12/09 01:32:56;;;;;;;6.73;5.77;;;2.50;97.50;;;;;;5047850;28;20226;-87
2021/12/09 01:35:26;;;;;;;6.27;5.40;;;2.40;97.50;;;;;;5044966;28;20669;-87
2021/12/09 01:37:56;;;;;;;5.67;5.07;;;2.50;97.80;;;;;;5040676;28;20218;-87
2021/12/09 01:40:25;;;;;;;6.30;5.70;;;2.50;97.80;;;;;;5041354;28;20221;-86
2021/12/09 01:42:52;;;;;;;6.23;5.50;;;2.60;97.70;;;;;;5049428;28;20229;-86
2021/12/09 01:45:20;;;;;;;6.03;5.30;;;2.50;97.60;;;;;;5052502;28;20205;-89
2021/12/09 01:47:47;;;;;;;6.27;5.40;;;2.40;97.70;;;;;;5027651;28;20226;-87
2021/12/09 01:50:17;;;;;;;5.90;5.23;;;2.40;98.00;;;;;;5051153;28;20202;-85
2021/12/09 01:52:44;;;;;;;4.90;4.40;;;2.40;98.10;;;;;;5052244;28;20700;-86
2021/12/09 01:55:14;;;;;;;5.00;4.50;;;2.40;97.90;;;;;;5052611;28;20213;-85
2021/12/09 01:57:42;;;;;;;5.03;4.53;;;2.40;97.90;;;;;;5034796;28;20221;-86
2021/12/09 02:00:13;;;;;;;4.83;4.33;;;2.30;98.10;;;;;;5048809;28;20196;-86
2021/12/09 02:02:41;;;;;;;5.27;4.37;;;2.20;97.90;;;;;;5051754;28;20236;-85
2021/12/09 02:05:10;;;;;;;4.67;4.27;;;2.20;98.20;;;;;;5050354;28;20202;-85
2021/12/09 02:07:40;;;;;;;5.43;4.47;;;2.20;98.30;;;;;;5040071;28;20692;-87
2021/12/09 02:10:11;;;;;;;4.93;4.43;;;2.30;98.50;;;;;;5040627;28;20675;-87
2021/12/09 02:12:38;;;;;;;4.77;4.30;;;2.30;98.40;;;;;;5051442;28;20225;-84
2021/12/09 02:15:06;;;;;;;4.93;4.43;;;2.30;98.40;;;;;;5038137;28;20207;-84
2021/12/09 02:17:35;;;;;;;5.03;4.53;;;2.20;98.10;;;;;;5029960;28;20588;-84
2021/12/09 02:20:05;;;;;;;5.17;4.67;;;2.20;98.40;;;;;;5026528;28;20670;-87
2021/12/09 02:22:47;;;;;;;4.80;4.30;;;2.20;98.40;;;;;;5040796;28;20225;-87
2021/12/09 02:25:16;;;;;;;4.73;4.33;;;2.10;98.50;;;;;;5041121;28;20202;-85
2021/12/09 02:27:43;;;;;;;4.60;4.20;;;2.20;98.70;;;;;;5045867;28;20256;-86
2021/12/09 02:30:11;;;;;;;4.50;4.10;;;2.10;98.40;;;;;;5035126;28;20540;-85
2021/12/09 02:32:38;;;;;;;4.57;4.17;;;2.10;98.80;;;;;;5045895;28;20262;-87
2021/12/09 02:35:06;;;;;;;4.57;4.17;;;2.10;98.60;;;;;;5016077;28;20195;-87
2021/12/09 02:37:33;;;;;;;4.80;4.30;;;2.10;98.60;;;;;;5028748;28;20221;-86
2021/12/09 02:40:02;;;;;;;4.93;4.43;;;2.10;98.80;;;;;;5011188;28;20206;-87
2021/12/09 02:42:29;;;;;;;4.50;4.10;;;2.00;98.70;;;;;;5046517;28;20232;-86
2021/12/09 02:44:57;;;;;;;4.47;4.07;;;2.10;99.10;;;;;;5041214;28;20249;-86
2021/12/09 02:47:26;;;;;;;4.37;3.97;;;2.10;99.10;;;;;;5026179;28;20265;-87
2021/12/09 02:49:53;;;;;;;4.30;3.90;;;2.20;98.80;;;;;;5047078;28;20273;-84
2021/12/09 02:52:21;;;;;;;4.53;4.13;;;2.10;98.70;;;;;;5045956;28;20234;-85
2021/12/09 02:54:48;;;;;;;4.57;4.17;;;2.10;98.90;;;;;;5033596;28;20227;-84
2021/12/09 02:57:16;;;;;;;5.33;4.83;;;2.10;99.00;;;;;;5040619;28;20229;-84
2021/12/09 02:59:43;;;;;;;5.10;4.60;;;2.20;99.00;;;;;;5051738;28;20216;-85
2021/12/09 03:02:12;;;;;;;5.17;4.73;;;2.10;99.00;;;;;;5055921;28;20697;-85
2021/12/09 03:04:46;;;;;;;5.37;4.87;;;2.20;99.00;;;;;;5056212;28;20564;-86
2021/12/09 03:07:18;;;;;;;5.97;4.93;;;2.30;99.00;;;;;;5035672;28;20232;-84
2021/12/09 03:09:51;;;;;;;5.07;4.67;;;2.30;98.90;;;;;;5048045;28;20186;-85
2021/12/09 03:12:24;;;;;;;5.50;5.00;;;2.30;98.60;;;;;;5036299;28;20227;-84
2021/12/09 03:14:51;;;;;;;5.50;5.00;;;2.30;98.50;;;;;;5036519;28;20222;-85
2021/12/09 03:17:19;;;;;;;5.47;4.97;;;2.30;98.60;;;;;;5036063;28;20226;-83
2021/12/09 03:19:47;;;;;;;5.53;5.03;;;2.40;98.40;;;;;;5036331;28;20222;-84
2021/12/09 03:22:15;;;;;;;5.90;5.13;;;2.30;98.40;;;;;;5035767;28;20682;-84
2021/12/09 03:24:42;;;;;;;5.70;5.20;;;2.30;98.30;;;;;;5044232;28;20196;-84
2021/12/09 03:27:10;;;;;;;6.03;5.47;;;2.30;98.20;;;;;;5055760;28;20233;-84
2021/12/09 03:29:40;;;;;;;6.10;5.50;;;2.20;98.60;;;;;;5045515;28;20201;-84
2021/12/09 03:32:10;;;;;;;5.67;5.17;;;2.20;98.70;;;;;;5054723;28;20229;-84
2021/12/09 03:34:39;;;;;;;6.33;5.73;;;2.10;98.80;;;;;;5040334;28;20222;-85
2021/12/09 03:37:12;;;;;;;6.80;5.73;;;2.10;98.90;;;;;;5039716;28;20225;-85
2021/12/09 03:39:41;;;;;;;6.40;5.80;;;2.10;99.20;;;;;;5051114;28;20200;-85
2021/12/09 03:42:11;;;;;;;5.37;4.87;;;2.20;99.10;;;;;;5054342;28;20266;-85
2021/12/09 03:44:40;;;;;;;6.03;5.53;;;2.30;98.90;;;;;;5052870;28;20652;-85
2021/12/09 03:47:09;;;;;;;6.17;5.57;;;2.30;98.90;;;;;;5031554;28;20234;-86
2021/12/09 03:49:37;;;;;;;5.97;5.37;;;2.20;98.60;;;;;;5048361;28;20191;-86
2021/12/09 03:52:05;;;;;;;6.40;5.80;;;2.20;98.70;;;;;;5043793;28;20233;-85
2021/12/09 03:54:32;;;;;;;5.70;5.20;;;2.30;98.50;;;;;;5041273;28;20222;-85
2021/12/09 03:56:59;;;;;;;6.37;5.77;;;2.20;98.60;;;;;;5036689;28;20219;-86
2021/12/09 03:59:26;;;;;;;6.10;5.50;;;2.20;98.50;;;;;;5051228;28;20651;-85
2021/12/09 04:01:56;;;;;;;6.30;5.70;;;2.40;98.50;;;;;;5042470;28;20239;-87
2021/12/09 04:04:23;;;;;;;5.83;5.23;;;2.40;98.40;;;;;;5058439;28;20569;-84
2021/12/09 04:06:50;;;;;;;6.93;6.23;;;2.40;98.40;;;;;;5041450;28;20230;-84
2021/12/09 04:09:22;;;;;;;6.30;5.70;;;2.30;98.40;;;;;;5047006;28;20214;-83
2021/12/09 04:11:50;;;;;;;7.00;6.30;;;2.30;98.40;;;;;;5042739;28;20225;-85
2021/12/09 04:14:18;;;;;;;6.80;6.17;;;2.20;98.50;;;;;;5048177;28;20275;-83
2021/12/09 04:16:46;;;;;;;7.13;6.43;;;2.20;98.60;;;;;;5049832;28;20246;-86
2021/12/09 04:19:14;;;;;;;6.63;6.00;;;2.20;99.00;;;;;;5041192;28;20202;-85
2021/12/09 04:21:43;;;;;;;7.10;6.40;;;2.30;98.80;;;;;;5049543;28;20575;-83
2021/12/09 04:24:12;;;;;;;6.57;5.90;;;2.30;98.50;;;;;;5044960;28;20198;-85
2021/12/09 04:26:41;;;;;;;6.83;6.13;;;2.30;98.70;;;;;;5032799;28;20236;-85
2021/12/09 04:29:09;;;;;;;6.80;6.10;;;2.50;98.50;;;;;;5033579;28;20194;-85
2021/12/09 04:31:37;;;;;;;6.87;6.17;;;2.40;98.50;;;;;;5047209;28;20233;-87
2021/12/09 04:34:05;;;;;;;6.73;6.13;;;2.40;98.40;;;;;;5034614;28;20698;-86
2021/12/09 04:36:33;;;;;;;10.10;6.43;;;2.40;98.20;;;;;;5034791;28;20228;-84
2021/12/09 04:39:01;;;;;;;6.90;6.20;;;2.50;98.40;;;;;;5032779;28;20542;-87
2021/12/09 04:41:28;;;;;;;7.43;6.67;;;2.40;98.10;;;;;;5040052;28;20711;-85
2021/12/09 04:43:55;;;;;;;7.63;6.83;;;2.40;98.20;;;;;;5030544;28;20215;-86
2021/12/09 04:46:22;;;;;;;7.50;6.63;;;2.40;98.30;;;;;;5030109;28;20566;-85
2021/12/09 04:48:49;;;;;;;7.57;6.77;;;2.40;98.20;;;;;;5030920;28;20993;-86
2021/12/09 04:51:16;;;;;;;7.77;7.07;;;2.40;97.80;;;;;;5045358;28;20202;-86
2021/12/09 04:53:45;;;;;;;7.07;6.37;;;2.40;98.20;;;;;;5046322;28;20236;-85
2021/12/09 04:56:12;;;;;;;6.87;6.23;;;2.30;98.10;;;;;;5026453;28;20201;-85
2021/12/09 04:58:39;;;;;;;7.03;6.10;;;2.40;98.40;;;;;;5034861;28;20673;-85
2021/12/09 05:01:08;;;;;;;8.53;6.93;;;2.30;98.20;;;;;;5041394;28;20278;-86
2021/12/09 05:03:35;;;;;;;6.63;6.00;;;2.30;98.20;;;;;;5025498;28;20219;-85
2021/12/09 05:06:02;;;;;;;7.97;6.70;;;2.30;98.20;;;;;;5045475;28;20191;-85
2021/12/09 05:08:32;;;;;;;6.97;5.90;;;2.30;98.30;;;;;;5036826;28;20894;-85
2021/12/09 05:11:06;;;;;;;7.20;6.50;;;2.40;98.40;;;;;;5042288;28;20563;-84
2021/12/09 05:13:36;;;;;;;8.77;6.47;;;2.40;98.10;;;;;;5036323;28;20221;-85
2021/12/09 05:16:05;;;;;;;7.77;6.97;;;2.20;98.20;;;;;;5045229;28;20202;-89
2021/12/09 05:18:35;;;;;;;7.17;6.47;;;2.30;98.70;;;;;;5040402;28;20228;-84
2021/12/09 05:21:03;;;;;;;7.50;6.70;;;2.40;98.60;;;;;;5049176;28;20202;-84
2021/12/09 05:23:31;;;;;;;7.13;6.33;;;2.40;98.50;;;;;;5041641;28;20849;-88
2021/12/09 05:25:58;;;;;;;7.43;6.27;;;2.50;98.50;;;;;;5047591;28;20203;-86
2021/12/09 05:28:31;;;;;;;8.27;7.27;;;2.60;98.10;;;;;;5038156;28;20228;-85
2021/12/09 05:33:43;;;;;;;7.87;6.37;;;2.40;98.10;;;;;;5038317;28;20222;-85
2021/12/09 05:36:12;;;;;;;9.20;7.40;;;2.40;98.40;;;;;;5047034;28;20205;-85
2021/12/09 05:38:39;;;;;;;7.40;6.50;;;2.40;98.40;;;;;;5022439;28;20293;-87
2021/12/09 05:41:06;;;;;;;7.80;6.83;;;2.30;98.10;;;;;;5029999;28;20198;-86
2021/12/09 05:43:36;;;;;;;7.20;6.50;;;2.30;98.20;;;;;;5038928;28;20226;-89
2021/12/09 05:46:03;;;;;;;7.50;6.07;;;2.50;98.60;;;;;;5032228;28;20199;-83
2021/12/09 05:48:41;;;;;;;7.33;6.57;;;2.50;98.20;;;;;;5014455;28;20229;-89
2021/12/09 05:51:08;;;;;;;6.40;5.80;;;2.60;98.10;;;;;;5027298;28;20233;-87
2021/12/09 05:53:35;;;;;;;6.83;5.87;;;2.50;97.80;;;;;;5032331;28;20225;-86
2021/12/09 05:56:02;;;;;;;7.30;6.20;;;2.50;98.00;;;;;;5030907;28;20209;-87
2021/12/09 05:58:29;;;;;;;8.07;6.20;;;2.50;98.20;;;;;;5034646;28;20222;-89
2021/12/09 06:00:57;;;;;;;6.80;5.87;;;2.60;98.20;;;;;;5036007;28;20205;-90
2021/12/09 06:03:25;;;;;;;7.97;6.47;;;2.60;98.00;;;;;;5036664;28;20222;-90
2021/12/09 06:05:53;;;;;;;6.97;5.70;;;2.50;98.00;;;;;;5035302;28;20200;-88
2021/12/09 06:08:21;;;;;;;7.07;5.60;;;2.40;98.10;;;;;;5044872;28;20222;-87
2021/12/09 06:10:49;;;;;;;6.50;5.80;;;2.40;98.00;;;;;;5036049;28;20201;-89
2021/12/09 06:13:17;;;;;;;6.43;5.83;;;2.50;98.20;;;;;;5035637;28;20226;-87
2021/12/09 06:16:10;;;;;;;5.77;5.10;;;2.50;98.20;;;;;;5037912;28;20217;-88
2021/12/09 06:18:37;;;;;;;5.87;5.27;;;2.50;98.10;;;;;;5053442;28;20206;-87
2021/12/09 06:21:05;;;;;;;6.53;5.53;;;2.50;97.70;;;;;;5054884;28;20202;-87
2021/12/09 06:23:33;;;;;;;5.87;5.20;;;2.40;97.90;;;;;;5055271;28;20226;-87
2021/12/09 06:26:06;;;;;;;7.40;5.13;;;2.40;98.20;;;;;;5055470;28;20198;-87
2021/12/09 06:28:33;;;;;;;6.27;5.10;;;2.50;98.50;;;;;;5053741;28;20287;-86
2021/12/09 06:31:10;;;;;;;7.13;5.57;;;2.60;98.10;;;;;;5055621;28;20194;-87
2021/12/09 06:33:37;;;;;;;7.20;5.13;;;2.70;97.70;;;;;;5024398;28;20674;-85
2021/12/09 06:36:05;;;;;;;7.43;5.00;;;2.70;97.30;;;;;;5030176;28;20214;-87
2021/12/09 06:38:33;;;;;;;5.73;5.00;;;2.70;97.50;;;;;;5021694;28;20237;-86
2021/12/09 06:41:00;;;;;;;6.70;5.20;;;2.60;97.70;;;;;;5038524;28;20635;-87
2021/12/09 06:43:27;;;;;;;6.70;5.40;;;2.50;97.70;;;;;;5037561;28;20261;-86
2021/12/09 06:45:55;;;;;;;5.70;5.00;;;2.40;97.90;;;;;;5039503;28;20199;-85
2021/12/09 06:48:27;;;;;;;6.30;4.90;;;2.40;98.00;;;;;;5039296;28;20202;-86
2021/12/09 06:50:54;;;;;;;5.20;4.60;;;2.50;98.10;;;;;;5038289;28;20210;-86
2021/12/09 06:53:21;;;;;;;6.10;4.73;;;2.40;98.10;;;;;;5038172;28;20234;-87
2021/12/09 06:55:48;;;;;;;7.03;3.93;;;2.30;98.10;;;;;;5037930;28;20207;-85
2021/12/09 06:58:21;;;;;;;5.07;4.10;;;2.40;98.40;;;;;;5037963;28;20256;-85
2021/12/09 07:00:49;;;;;;;5.50;4.70;;;2.40;98.40;;;;;;5038367;28;20626;-86
2021/12/09 07:03:17;;;;;;;6.53;4.53;;;2.40;98.20;;;;;;5020451;28;20230;-86
2021/12/09 07:06:11;;;;;;;6.03;4.27;;;2.30;98.10;;;;;;5037662;28;20221;-86
2021/12/09 07:08:45;;;;;;;4.53;4.07;;;2.30;98.50;;;;;;5038090;28;20205;-86
2021/12/09 07:12:01;;;;;;;5.27;3.90;;;2.40;98.40;;;;;;5035349;28;20230;-86
2021/12/09 07:14:30;;;;;;;3.73;3.10;;;2.40;98.40;;;;;;5037918;28;20230;-86
2021/12/09 07:16:57;;;;;;;7.13;3.80;;;2.30;98.60;;;;;;5038359;28;20222;-86
2021/12/09 07:26:45;;;;;;;4.77;4.10;;;2.30;98.60;;;;;;5037684;28;20175;-86
2021/12/09 07:42:54;;;;;;;4.57;3.47;;;2.30;98.70;;;;;;5036687;28;20230;-87
2021/12/09 07:45:22;;;;;;;4.00;3.60;;;2.30;98.70;;;;;;5041129;28;20199;-87
2021/12/09 07:47:51;;;;;;;4.20;3.27;;;2.30;98.80;;;;;;5036475;28;20712;-87
2021/12/09 07:50:20;;;;;;;3.40;2.97;;;2.40;98.70;;;;;;5040828;28;20587;-86
2021/12/09 07:52:51;;;;;;;4.67;3.60;;;2.40;98.70;;;;;;5038654;28;20561;-86
2021/12/09 07:55:19;;;;;;;5.00;3.80;;;2.50;98.70;;;;;;5035770;28;20238;-86
2021/12/09 07:57:49;;;;;;;6.53;3.90;;;2.40;98.40;;;;;;5025995;28;20238;-84
2021/12/09 08:00:28;;;;;;;5.37;3.60;;;2.50;98.30;;;;;;5020446;28;20205;-88
2021/12/09 08:03:09;;;;;;;5.37;3.90;;;2.50;98.30;;;;;;5055356;28;20231;-89
2021/12/09 08:05:40;;;;;;;4.53;3.57;;;2.40;98.20;;;;;;5005367;28;20231;-83
2021/12/09 08:08:08;;;;;;;3.93;3.50;;;2.30;98.40;;;;;;5000742;28;20207;-84
2021/12/09 08:10:36;;;;;;;4.70;3.70;;;2.30;98.60;;;;;;5017347;28;20210;-82
2021/12/09 08:13:07;;;;;;;3.70;3.27;;;2.40;98.70;;;;;;5022714;28;20283;-84
2021/12/09 08:15:45;;;;;;;4.00;3.47;;;2.40;98.80;;;;;;5041425;28;20551;-83
2021/12/09 08:18:26;;;;;;;4.83;3.50;;;2.50;98.60;;;;;;5053490;28;20205;-83
2021/12/09 08:20:57;;;;;;;3.53;3.10;;;2.60;98.30;;;;;;5052580;28;20205;-83
2021/12/09 08:23:24;;;;;;;4.37;3.23;;;2.50;98.20;;;;;;5056764;28;20198;-83
2021/12/09 08:25:51;;;;;;;3.63;3.27;;;2.70;98.10;;;;;;5056293;28;20202;-84
2021/12/09 08:28:19;;;;;;;3.90;3.30;;;2.70;97.80;;;;;;5056679;28;20193;-85
2021/12/09 08:30:50;;;;;;;3.43;3.10;;;2.70;97.90;;;;;;5056595;28;20213;-84
2021/12/09 08:33:18;;;;;;;6.50;3.40;;;2.60;98.00;;;;;;5040072;28;20230;-84
2021/12/09 08:35:45;;;;;;;3.20;2.90;;;2.60;97.90;;;;;;5039806;28;20206;-84
2021/12/09 08:38:22;;;;;;;3.47;3.07;;;2.60;98.20;;;;;;5038330;28;20722;-85
2021/12/09 08:40:49;;;;;;;6.97;3.23;;;2.70;97.80;;;;;;5030135;28;20210;-84
2021/12/09 08:43:17;;;;;;;4.60;3.63;;;2.60;97.70;;;;;;5088976;23;20196;-87
2021/12/09 08:45:45;;;;;;;3.77;3.40;;;2.60;98.10;;;;;;5043489;28;20190;-86
2021/12/09 08:48:14;;;;;;;3.97;3.57;;;2.60;97.90;;;;;;5050433;28;20240;-87
2021/12/09 08:50:43;;;;;;;3.40;3.10;;;2.50;97.90;;;;;;5043661;28;20474;-86
2021/12/09 08:53:12;;;;;;;4.83;3.23;;;2.60;98.10;;;;;;5040935;28;20275;-87
2021/12/09 08:55:40;;;;;;;6.33;3.60;;;2.60;98.00;;;;;;5046456;28;20217;-87
2021/12/09 08:58:08;;;;;;;6.07;3.50;;;2.60;97.70;;;;;;5039185;28;20334;-84
2021/12/09 09:00:36;;;;;;;6.93;3.93;;;2.60;97.90;;;;;;5040694;28;20198;-85
2021/12/09 09:03:05;;;;;;;4.37;3.80;;;2.60;97.80;;;;;;5038539;28;20233;-84
2021/12/09 09:05:35;;;;;;;4.60;3.50;;;2.60;97.50;;;;;;5039027;28;20204;-84
2021/12/09 09:08:03;;;;;;;6.17;3.80;;;2.60;97.50;;;;;;5036618;28;20223;-85
2021/12/09 09:10:33;;;;;;;5.07;3.97;;;2.40;98.00;;;;;;5035697;28;20209;-82
2021/12/09 09:13:01;;;;;;;4.37;3.40;;;2.50;98.00;;;;;;5034212;28;20704;-85
2021/12/09 09:15:31;;;;;;;3.63;3.23;;;2.60;97.90;;;;;;5035633;28;20237;-86
2021/12/09 09:17:58;;;;;;;4.10;3.60;;;2.60;97.80;;;;;;5034384;28;20236;-85
2021/12/09 09:20:28;;;;;;;3.57;3.20;;;2.50;97.60;;;;;;5034922;28;20209;-85
2021/12/09 09:22:56;;;;;;;4.03;3.63;;;2.40;98.10;;;;;;5031717;28;20234;-85
2021/12/09 09:25:29;;;;;;;4.07;3.07;;;2.50;98.30;;;;;;5035861;28;20666;-85
2021/12/09 09:27:57;;;;;;;4.27;3.60;;;2.50;98.10;;;;;;5035070;28;20229;-86
2021/12/09 09:30:26;;;;;;;4.90;3.60;;;2.60;98.00;;;;;;5036164;28;20198;-86
2021/12/09 09:32:54;;;;;;;4.83;3.80;;;2.70;97.90;;;;;;5035333;28;20249;-85
2021/12/09 09:35:22;;;;;;;4.57;3.50;;;2.60;97.70;;;;;;5036024;28;20280;-86
2021/12/09 09:38:12;;;;;;;4.30;3.57;;;2.60;97.70;;;;;;5034183;28;20226;-87
2021/12/09 09:40:46;;;;;;;4.73;3.70;;;2.60;98.00;;;;;;5037151;28;20193;-86
2021/12/09 09:43:27;;;;;;;4.37;3.80;;;2.80;97.60;;;;;;5012924;28;20235;-87
2021/12/09 09:45:54;;;;;;;4.20;3.80;;;2.80;97.30;;;;;;5014207;28;20239;-85
2021/12/09 09:48:22;;;;;;;5.80;4.10;;;2.70;97.80;;;;;;5015980;28;20227;-86
2021/12/09 09:50:49;;;;;;;5.50;4.07;;;2.80;97.70;;;;;;5034614;28;20202;-83
2021/12/09 09:53:18;;;;;;;4.93;4.20;;;2.80;97.40;;;;;;5041558;28;20634;-86
2021/12/09 09:55:47;;;;;;;5.60;4.30;;;2.90;97.30;;;;;;5033231;28;20219;-86
2021/12/09 09:58:15;;;;;;;6.97;4.70;;;2.90;97.20;;;;;;5030763;28;20283;-87
2021/12/09 10:00:42;;;;;;;4.73;4.30;;;2.90;97.40;;;;;;5028465;28;20588;-87
2021/12/09 10:03:16;;;;;;;6.17;4.23;;;2.90;97.70;;;;;;5044236;28;20222;-87
2021/12/09 10:05:44;;;;;;;5.97;5.30;;;2.90;97.50;;;;;;5038204;28;20642;-86
2021/12/09 10:08:13;;;;;;;8.90;5.73;;;2.80;97.50;;;;;;5037578;28;20221;-88
2021/12/09 10:10:44;;;;;;;6.40;5.67;;;2.90;97.20;;;;;;5044898;28;20202;-87
2021/12/09 10:13:14;;;;;;;8.93;5.87;;;2.80;97.30;;;;;;5049927;28;20226;-86
2021/12/09 10:15:47;;;;;;;7.07;5.80;;;3.00;97.30;;;;;;5044319;28;20210;-86
2021/12/09 10:18:15;;;;;;;7.80;5.97;;;3.00;97.20;;;;;;5045667;28;20230;-85
2021/12/09 10:20:50;;;;;;;9.17;6.50;;;3.00;97.00;;;;;;5036044;28;20198;-90
2021/12/09 10:23:30;;;;;;;8.77;6.80;;;3.10;96.80;;;;;;5035252;28;20343;-86
2021/12/09 10:26:22;;;;;;;11.10;7.37;;;2.90;96.90;;;;;;5036817;28;20221;-86
2021/12/09 10:28:56;;;;;;;9.00;7.20;;;2.90;97.20;;;;;;5032065;28;20203;-85
2021/12/09 10:31:30;;;;;;;9.90;7.20;;;2.90;97.40;;;;;;5022550;28;20708;-88
2021/12/09 10:34:11;;;;;;;9.10;7.23;;;2.90;97.20;;;;;;5055582;28;20660;-87
2021/12/09 10:36:54;;;;;;;10.30;7.03;;;3.00;97.20;;;;;;5061854;28;20319;-87
2021/12/09 10:39:28;;;;;;;10.47;7.23;;;2.90;97.00;;;;;;5048178;28;20186;-88
2021/12/09 10:41:58;;;;;;;9.23;6.83;;;3.00;97.30;;;;;;5051908;28;20232;-88
2021/12/09 10:44:45;;;;;;;8.40;6.97;;;3.00;97.30;;;;;;5040742;28;20237;-87
2021/12/09 10:47:21;;;;;;;10.00;7.17;;;3.00;97.30;;;;;;5010849;28;20226;-89
2021/12/09 10:50:02;;;;;;;10.73;7.33;;;3.00;96.90;;;;;;5017837;28;20206;-87
2021/12/09 10:52:37;;;;;;;10.03;7.50;;;3.00;97.00;;;;;;5014547;28;20222;-86
2021/12/09 10:55:14;;;;;;;9.50;6.70;;;3.20;96.90;;;;;;5033783;28;20182;-85
2021/12/09 10:57:43;;;;;;;9.27;7.10;;;3.20;96.50;;;;;;5027783;28;20218;-88
2021/12/09 11:00:22;;;;;;;11.00;6.93;;;3.20;96.50;;;;;;5035468;28;20190;-86
2021/12/09 11:06:56;;;;;;;8.93;6.37;;;3.20;96.20;;;;;;5035320;28;20170;-86
2021/12/09 11:09:25;;;;;;;8.90;6.50;;;3.20;95.90;;;;;;5036534;28;20222;-87
2021/12/09 11:11:56;;;;;;;9.07;6.20;;;3.20;96.40;;;;;;5033400;28;20233;-87
2021/12/09 11:14:28;;;;;;;8.50;6.67;;;3.20;96.20;;;;;;5033820;28;20198;-88
2021/12/09 11:17:03;;;;;;;9.20;6.27;;;3.20;96.30;;;;;;5028652;28;20760;-88
2021/12/09 11:19:40;;;;;;;14.07;6.57;;;3.30;95.90;;;;;;5041108;28;20205;-89
2021/12/09 11:22:09;;;;;;;10.50;6.30;;;3.20;96.00;;;;;;5018946;28;20314;-89
2021/12/09 11:24:40;;;;;;;9.97;6.13;;;3.10;95.90;;;;;;5034579;28;20673;-87
2021/12/09 11:27:08;;;;;;;11.63;6.40;;;3.20;96.20;;;;;;5031916;28;20226;-88
2021/12/09 11:29:42;;;;;;;12.00;6.23;;;3.10;96.20;;;;;;5034369;28;20203;-88
2021/12/09 11:32:15;;;;;;;8.87;6.10;;;3.20;96.10;;;;;;5039237;28;20253;-91
2021/12/09 11:34:48;;;;;;;10.20;6.00;;;3.30;96.30;;;;;;5030098;28;20674;-88
2021/12/09 11:52:02;;;;;;;9.23;5.60;;;3.40;95.70;;;;;;5062144;28;20618;-86
2021/12/09 11:55:05;;;;;;;8.83;5.20;;;3.30;95.90;;;;;;5057031;28;20265;-89
2021/12/09 11:57:38;;;;;;;9.63;5.23;;;3.20;96.20;;;;;;5044988;28;20280;-90
2021/12/09 12:12:36;;;;;;;8.33;5.10;;;3.30;96.00;;;;;;5034020;28;20572;-87
2021/12/09 12:15:31;;;;;;;9.70;5.33;;;3.40;95.80;;;;;;5066103;28;20189;-86
2021/12/09 12:25:33;;;;;;;7.50;5.50;;;3.30;96.20;;;;;;4956632;29;20189;-86
2021/12/09 12:28:57;;;;;;;7.40;5.27;;;3.30;95.70;;;;;;4956422;28;20233;-86
2021/12/09 12:38:32;;;;;;;9.83;4.90;;;3.40;95.70;;;;;;4918093;29;20233;-86
2021/12/09 12:41:07;;;;;;;8.50;5.07;;;3.60;95.20;;;;;;4956448;28;20537;-86
2021/12/09 12:51:27;;;;;;;7.77;5.23;;;3.50;95.10;;;;;;5337977;23;20319;-86
2021/12/09 12:53:57;;;;;;;6.27;5.10;;;3.50;95.00;;;;;;5056816;28;20205;-86
2021/12/09 12:56:31;;;;;;;8.23;5.50;;;3.40;95.50;;;;;;5057968;28;20210;-86
2021/12/09 12:59:21;;;;;;;11.43;5.60;;;3.20;95.60;;;;;;5057979;28;20201;-85
2021/12/09 13:08:50;;;;;;;6.87;5.23;;;3.20;96.10;;;;;;5016526;28;20238;-86
2021/12/09 13:11:38;;;;;;;6.60;5.30;;;3.20;96.30;;;;;;5019207;28;20196;-86
2021/12/09 13:21:37;;;;;;;8.43;5.13;;;3.50;95.30;;;;;;5001319;28;20238;-86
2021/12/09 13:25:04;;;;;;;6.90;5.30;;;3.40;95.40;;;;;;5015598;28;20215;-86
2021/12/09 13:33:49;;;;;;;7.37;4.83;;;3.30;95.60;;;;;;5013255;28;20284;-86
2021/12/09 13:51:20;;;;;;;9.87;4.70;;;3.30;95.30;;;;;;4993157;28;20279;-86
2021/12/09 13:54:16;;;;;;;7.93;5.00;;;3.10;95.40;;;;;;5012968;28;20213;-86
2021/12/09 13:56:43;;;;;;;9.67;5.17;;;3.10;95.90;;;;;;5013694;28;20277;-88
2021/12/09 13:59:16;;;;;;;8.20;5.10;;;3.20;95.70;;;;;;5012943;28;20199;-87
2021/12/09 14:01:46;;;;;;;7.90;4.80;;;3.20;95.70;;;;;;5010362;28;20790;-87
2021/12/09 14:04:18;;;;;;;7.97;5.23;;;3.30;95.60;;;;;;5002847;28;20237;-88
2021/12/09 14:06:51;;;;;;;7.33;5.40;;;3.40;95.20;;;;;;5014009;28;20387;-87
2021/12/09 14:09:18;;;;;;;9.70;4.97;;;3.40;95.40;;;;;;5021839;28;20203;-88
2021/12/09 14:11:49;;;;;;;7.67;4.40;;;3.40;94.80;;;;;;5027575;28;20234;-89
2021/12/09 14:14:24;;;;;;;7.20;4.30;;;3.20;95.10;;;;;;5007352;28;20188;-88
2021/12/09 14:16:57;;;;;;;9.13;4.93;;;3.40;94.70;;;;;;5001856;28;20744;-87
2021/12/09 14:22:15;;;;;;;7.13;4.80;;;3.30;94.70;;;;;;5009300;28;20237;-88
2021/12/09 14:24:45;;;;;;;10.97;4.90;;;3.30;94.70;;;;;;5027098;28;20213;-86
2021/12/09 14:27:15;;;;;;;9.33;4.97;;;3.20;95.00;;;;;;5013391;28;20214;-88
2021/12/09 14:29:47;;;;;;;9.27;4.87;;;3.00;95.40;;;;;;5021246;28;20195;-88
2021/12/09 14:32:19;;;;;;;7.07;4.90;;;3.10;95.70;;;;;;5016711;28;20234;-90
2021/12/09 14:34:49;;;;;;;6.53;4.60;;;3.20;95.50;;;;;;4995260;28;20542;-87
2021/12/09 14:37:17;;;;;;;7.53;5.23;;;3.10;95.40;;;;;;5005146;28;20682;-86
2021/12/09 14:39:46;;;;;;;6.97;4.60;;;3.10;95.10;;;;;;5012263;28;20595;-89
2021/12/09 14:42:15;;;;;;;8.47;4.60;;;3.10;94.90;;;;;;5010369;28;20219;-86
2021/12/09 14:44:54;;;;;;;8.60;4.90;;;3.00;95.50;;;;;;5011865;28;20219;-86
2021/12/09 14:47:23;;;;;;;6.07;4.80;;;3.10;95.50;;;;;;5018212;28;20226;-87
2021/12/09 14:49:52;;;;;;;6.93;4.43;;;3.00;95.50;;;;;;5014479;28;20225;-87
2021/12/09 14:52:34;;;;;;;8.63;4.60;;;3.10;95.40;;;;;;5022126;28;20219;-87
2021/12/09 14:55:12;;;;;;;7.00;4.93;;;3.00;95.40;;;;;;5014072;28;20207;-86
2021/12/09 14:57:55;;;;;;;7.57;5.10;;;3.10;95.50;;;;;;5004964;28;20238;-83
2021/12/09 15:00:39;;;;;;;7.90;5.40;;;3.00;95.60;;;;;;5025580;28;20195;-87
2021/12/09 15:06:55;;;;;;;6.80;4.70;;;3.20;95.50;;;;;;5000112;28;20170;-87
2021/12/09 15:09:23;;;;;;;8.03;4.40;;;3.10;95.00;;;;;;5008560;28;20202;-84
2021/12/09 15:11:52;;;;;;;6.73;4.60;;;2.90;95.10;;;;;;5020997;28;20210;-84
2021/12/09 15:14:23;;;;;;;8.17;4.47;;;2.80;95.50;;;;;;5020055;28;20551;-85